• Join FlightAware (Why Join?)
  • Login
  • US Flag 
11:37AM EDT


 

Airport Tracker/Info


-or-


 

Live Flight TrackerFlight Track Log ✈ DAL55 ✈ 29-Apr-2012 ✈ KATL - KIAH

Flight Track Log - Related Links

Times and Time Zones

All times are in EDT time to prevent confusion due to time zone crossing. See the DAL55 flight status page for this flight to view local times or setup timezone preferences in your user account.

Time Position Orientation Groundspeed Altitude Reporting Facility
EDT Latitude Longitude Course Direction KTS MPH feet Rate Location/Type
07:53AM 33.6500 -84.3833 64° Northeast 180 207 2,200  Level Atlanta TRACON
07:54AM 33.6833 -84.3000 12° North 261 300 4,100 2,520 Climbing Atlanta TRACON
07:55AM 33.7500 -84.2833 291° West 278 320 7,400 2,280 Climbing Atlanta TRACON
07:57AM 33.8103 -84.4739 266° West 284 327 11,800 1,920 Climbing Atlanta Center
07:58AM 33.8033 -84.5889 234° Southwest 342 394 13,800 2,100 Climbing Atlanta Center
07:59AM 33.7403 -84.6933 238° Southwest 357 411 16,000 1,980 Climbing Atlanta Center
08:00AM 33.6769 -84.8153 238° Southwest 379 436 17,800 2,160 Climbing Atlanta Center
08:01AM 33.6156 -84.9344 246° West 433 498 20,400 2,220 Climbing Atlanta Center
08:02AM 33.5667 -85.0683 248° West 438 504 22,300 1,800 Climbing Atlanta Center
08:03AM 33.5194 -85.2050 258° West 443 510 24,100 2,100 Climbing Atlanta Center
08:04AM 33.4908 -85.3639 258° West 449 517 26,500 2,160 Climbing Atlanta Center
08:05AM 33.4661 -85.5031 261° West 437 503 28,500 1,740 Climbing Atlanta Center
08:06AM 33.4478 -85.6447 259° West 437 503 30,000 1,440 Climbing Atlanta Center
08:07AM 33.4250 -85.7836 260° West 431 496 31,400 1,260 Climbing Atlanta Center
08:08AM 33.4067 -85.9028 259° West 425 489 32,600 960 Climbing Atlanta Center
08:09AM 33.3856 -86.0367 259° West 425 489 33,400 660 Climbing Atlanta Center
08:10AM 33.3625 -86.1728 258° West 416 479 34,000 300 Climbing Atlanta Center
08:11AM 33.3392 -86.3089 258° West 416 479 34,000  Level Atlanta Center
08:12AM 33.3133 -86.4575 261° West 424 488 34,000  Level Atlanta Center
08:13AM 33.2939 -86.5986 258° West 424 488 34,000  Level Atlanta Center
08:14AM 33.2703 -86.7294 258° West 424 488 34,000  Level Atlanta Center
08:15AM 33.2461 -86.8681 252° West 424 488 34,000  Level Atlanta Center
08:16AM 33.2097 -87.0008 240° Southwest 430 495 34,000  Level Atlanta Center
08:17AM 33.1592 -87.1033 241° Southwest 422 486 34,000  Level Atlanta Center
08:18AM 33.0950 -87.2425 243° Southwest 422 486 34,000  Level Atlanta Center
08:19AM 33.0417 -87.3667 242° Southwest 422 486 34,000  Level Atlanta Center
08:20AM 32.9839 -87.4958 241° Southwest 434 499 34,000  Level Atlanta Center
08:21AM 32.9136 -87.6475 241° Southwest 417 480 34,000  Level Memphis Center
08:22AM 32.8558 -87.7731 242° Southwest 424 488 34,000  Level Memphis Center
08:23AM 32.7939 -87.9108 243° Southwest 430 495 34,000  Level Memphis Center
08:24AM 32.7400 -88.0356 249° West 430 495 34,000  Level Memphis Center
08:25AM 32.6986 -88.1650 250° West 430 495 34,000  Level Memphis Center
08:26AM 32.6608 -88.2869 249° West 435 501 34,000  Level Memphis Center
08:27AM 32.6192 -88.4161 249° West 435 501 34,000  Level Memphis Center
08:28AM 32.5772 -88.5478 248° West 435 501 34,000  Level Memphis Center
08:29AM 32.5331 -88.6767 250° West 435 501 34,000  Level Memphis Center
08:30AM 32.4931 -88.8056 249° West 430 495 34,000  Level Memphis Center
08:31AM 32.4508 -88.9369 248° West 430 495 34,000  Level Memphis Center
08:32AM 32.4083 -89.0631 250° West 430 495 34,000  Level Memphis Center
08:33AM 32.3678 -89.1914 250° West 430 495 34,000  Level Memphis Center
08:34AM 32.3272 -89.3200 249° West 430 495 34,000  Level Memphis Center
08:35AM 32.2864 -89.4481 248° West 425 489 34,000  Level Memphis Center
08:36AM 32.2436 -89.5761 250° West 425 489 34,000  Level Memphis Center
08:37AM 32.2025 -89.7067 249° West 425 489 34,000  Level Memphis Center
08:38AM 32.1614 -89.8347 249° West 425 489 34,000  Level Memphis Center
08:39AM 32.1200 -89.9625 248° West 425 489 34,000  Level Memphis Center
08:40AM 32.0767 -90.0900 249° West 425 489 34,000  Level Memphis Center
08:41AM 32.0350 -90.2200 249° West 425 489 34,000  Level Memphis Center
08:42AM 31.9933 -90.3450 250° West 425 489 34,000  Level Memphis Center
08:43AM 31.9517 -90.4772 248° West 425 489 34,000 -60 Level Memphis Center
08:45AM 31.8642 -90.7300 248° West 417 480 33,900  Descending Houston Center
08:46AM 31.8211 -90.8550 249° West 417 480 34,000  Climbing Houston Center
08:47AM 31.7781 -90.9847 248° West 417 480 34,000  Level Houston Center
08:48AM 31.7369 -91.1072 248° West 417 480 34,000  Level Houston Center
08:49AM 31.6936 -91.2342 248° West 417 480 34,000  Level Houston Center
08:50AM 31.6503 -91.3611 248° West 417 480 34,000  Level Houston Center
08:51AM 31.6067 -91.4856 247° West 417 480 34,000  Level Houston Center
08:52AM 31.5608 -91.6100 241° Southwest 417 480 34,000  Level Houston Center
08:53AM 31.5044 -91.7292 240° Southwest 417 480 34,000  Level Houston Center
08:54AM 31.4481 -91.8436 242° Southwest 417 480 34,000  Level Houston Center
08:55AM 31.3936 -91.9625 241° Southwest 417 480 34,000  Level Houston Center
08:56AM 31.3369 -92.0839 241° Southwest 417 480 34,000  Level Houston Center
08:57AM 31.2803 -92.2028 241° Southwest 417 480 34,000  Level Houston Center
08:58AM 31.2233 -92.3214 240° Southwest 417 480 34,000  Level Houston Center
08:59AM 31.1664 -92.4375 241° Southwest 412 474 34,000 -60 Level Houston Center
09:00AM 31.1094 -92.5558 241° Southwest 417 480 33,900  Descending Houston Center
09:01AM 31.0542 -92.6717 238° Southwest 417 480 34,000  Climbing Houston Center
09:02AM 30.9844 -92.8017 240° Southwest 425 489 34,000  Level Houston Center
09:03AM 30.9292 -92.9150 241° Southwest 425 489 34,000  Level Houston Center
09:04AM 30.8800 -93.0183 242° Southwest 413 475 34,000  Level Houston Center
09:05AM 30.8267 -93.1336 238° Southwest 408 470 34,000  Level Houston Center
09:06AM 30.7669 -93.2464 241° Southwest 408 470 34,000 -300 Level Houston Center
09:07AM 30.7114 -93.3614 241° Southwest 408 470 33,500 -1,140 Descending Houston Center
09:08AM 30.6578 -93.4739 240° Southwest 413 475 31,800 -1,980 Descending Houston Center
09:09AM 30.6019 -93.5864 239° Southwest 413 475 29,600 -3,060 Descending Houston Center
09:10AM 30.5331 -93.7175 239° Southwest 423 487 25,700 -3,300 Descending Houston Center
09:11AM 30.4731 -93.8319 239° Southwest 423 487 23,000 -2,640 Descending Houston Center
09:12AM 30.4147 -93.9439 240° Southwest 423 487 20,500 -2,460 Descending Houston Center
09:13AM 30.3608 -94.0511 239° Southwest 417 480 18,100 -2,400 Descending Houston Center
09:14AM 30.3067 -94.1556 240° Southwest 395 455 15,700 -2,400 Descending Houston Center
09:15AM 30.2806 -94.2078 239° Southwest 374 430 14,400 -2,280 Descending Houston Center
09:16AM 30.2264 -94.3122 248° West 366 421 12,200 -1,200 Descending Houston Center
09:17AM 30.1867 -94.4267 257° West 367 422 12,000 -120 Descending Houston Center
09:18AM 30.1656 -94.5364 260° West 367 422 12,000 -480 Level Houston Center
09:19AM 30.1461 -94.6608 259° West 366 421 11,100 -900 Descending Houston Center
09:20AM 30.1267 -94.7803 258° West 341 392 10,200 -720 Descending Houston Center
09:21AM 30.1075 -94.8878 267° West 330 380 9,500 -960 Descending Houston Center
09:22AM 30.1033 -94.9764 272° West 296 341 8,100 -1,560 Descending Houston Center
09:23AM 30.1053 -95.0628 272° West 279 321 6,600 -1,140 Descending Houston Center
09:24AM 30.1075 -95.1469 268° West 283 326 6,100 -300 Descending Houston Center
09:25AM 30.1047 -95.2453 270° West 286 329 6,100 -60 Level Houston Center
09:26AM 30.1047 -95.3269 271° West 282 325 6,000 -420 Descending Houston Center
09:27AM 30.1061 -95.4303 268° West 277 319 5,300 -1,020 Descending Houston Center
09:28AM 30.1033 -95.5236 252° West 289 333 3,800 -1,200 Descending Houston Center
09:29AM 30.0825 -95.5972 187° South 256 295 2,900 -420 Descending Houston Center
09:30AM 30.0156 -95.6067 102° East 220 253 3,000 60 Climbing Houston Center
09:31AM 30.0047 -95.5464 90° East 217 250 3,100 -420 Climbing Houston Center
09:32AM 30.0044 -95.4839 90° East 201 231 2,300 -900 Descending Houston Center